Time;durP1;ratioP1;P1;durP2;ratioP2;P2;SDS_P1;SDS_P2;PMS_P1;PMS_P2;Temp;Humidity;BMP_temperature;BMP_pressure;BME280_temperature;BME280_humidity;BME280_pressure;Samples;Min_cycle;Max_cycle;Signal;HPM_P1;HPM_P2
2022/01/04 00:01:07;;;;;;;3.63;3.33;;;;;;;8.34;93.54;99851.31;5114395;28;20254;-75
2022/01/04 00:03:34;;;;;;;4.27;3.47;;;;;;;8.32;93.68;99844.50;5113861;28;20194;-75
2022/01/04 00:06:01;;;;;;;7.73;5.37;;;;;;;8.26;94.08;99843.00;5114495;28;20201;-75
2022/01/04 00:08:27;;;;;;;3.60;2.20;;;;;;;8.28;93.72;99834.19;5114128;28;20196;-75
2022/01/04 00:11:05;;;;;;;2.77;2.67;;;;;;;8.18;93.62;99835.53;5114547;28;20193;-75
2022/01/04 00:13:32;;;;;;;3.60;3.30;;;;;;;8.08;93.67;99815.19;5114028;28;20189;-75
2022/01/04 00:15:59;;;;;;;8.53;3.27;;;;;;;7.97;93.79;99806.06;5114671;28;20674;-75
2022/01/04 00:18:25;;;;;;;4.30;3.43;;;;;;;7.83;94.32;99812.81;5114152;28;20248;-76
2022/01/04 00:20:53;;;;;;;3.23;3.13;;;;;;;7.80;94.73;99803.41;5113968;28;20281;-76
2022/01/04 00:23:20;;;;;;;3.73;3.43;;;;;;;7.75;95.00;99796.69;5095826;28;20203;-76
2022/01/04 00:25:47;;;;;;;3.10;3.00;;;;;;;7.85;94.37;99795.34;5113985;28;20325;-75
2022/01/04 00:28:13;;;;;;;3.63;3.43;;;;;;;7.90;94.35;99799.44;5114312;28;20204;-76
2022/01/04 00:30:40;;;;;;;3.20;2.90;;;;;;;7.84;94.30;99797.13;5114015;28;20185;-76
2022/01/04 00:33:09;;;;;;;2.50;2.50;;;;;;;7.81;94.27;99792.06;5113662;28;20254;-76
2022/01/04 00:35:36;;;;;;;2.50;2.40;;;;;;;7.81;94.28;99784.25;5113861;28;20615;-76
2022/01/04 00:38:03;;;;;;;2.73;2.60;;;;;;;7.94;93.87;99787.13;5114192;28;20592;-76
2022/01/04 00:40:30;;;;;;;4.53;2.33;;;;;;;7.82;93.75;99780.72;5113801;28;20201;-77
2022/01/04 00:43:00;;;;;;;2.40;2.30;;;;;;;7.75;93.89;99773.25;5112855;28;20193;-77
2022/01/04 00:45:31;;;;;;;2.10;2.10;;;;;;;7.79;93.76;99767.84;5113707;28;20213;-76
2022/01/04 00:50:32;;;;;;;2.40;1.83;;;;;;;7.62;93.96;99760.75;5113793;28;20185;-76
2022/01/04 00:52:59;;;;;;;2.10;2.10;;;;;;;7.64;94.07;99758.94;5113561;28;20199;-76
2022/01/04 00:55:27;;;;;;;1.97;1.60;;;;;;;7.58;94.32;99755.78;5095685;28;20208;-76
2022/01/04 00:57:54;;;;;;;1.70;1.60;;;;;;;7.61;94.03;99751.25;5113730;28;20181;-77
2022/01/04 01:00:21;;;;;;;1.63;1.63;;;;;;;7.52;94.18;99745.63;5113879;28;20728;-76
2022/01/04 01:02:48;;;;;;;2.10;1.53;;;;;;;7.52;93.89;99741.25;5113712;28;20192;-77
2022/01/04 01:05:17;;;;;;;1.60;1.50;;;;;;;7.49;94.24;99735.31;5113577;28;20201;-76
2022/01/04 01:07:44;;;;;;;1.30;1.30;;;;;;;7.59;93.92;99723.59;5113904;28;20586;-76
2022/01/04 01:12:40;;;;;;;1.10;1.10;;;;;;;7.44;94.05;99710.34;5113271;28;20196;-76
2022/01/04 01:15:08;;;;;;;1.43;1.43;;;;;;;7.52;94.00;99715.22;5113473;28;20185;-76
2022/01/04 01:17:35;;;;;;;0.97;0.97;;;;;;;7.42;94.19;99714.75;5113789;28;20200;-76
2022/01/04 01:20:04;;;;;;;1.13;1.13;;;;;;;7.39;94.16;99698.44;5113549;28;20603;-76
2022/01/04 01:22:31;;;;;;;1.37;1.37;;;;;;;7.34;94.52;99701.22;5113233;28;20180;-76
2022/01/04 01:24:57;;;;;;;1.53;1.53;;;;;;;7.34;95.00;99697.78;5113410;28;20606;-76
2022/01/04 01:27:23;;;;;;;3.07;1.33;;;;;;;7.33;94.65;99693.50;5113438;28;20722;-76
2022/01/04 01:29:50;;;;;;;1.00;1.00;;;;;;;7.29;94.76;99700.63;5113398;28;20211;-76
2022/01/04 01:32:16;;;;;;;1.30;1.30;;;;;;;7.28;95.01;99690.25;5113065;28;20242;-76
2022/01/04 01:34:43;;;;;;;1.40;1.40;;;;;;;7.39;94.63;99686.25;5113382;28;20181;-77
2022/01/04 01:37:10;;;;;;;1.33;1.33;;;;;;;7.34;94.08;99690.81;5113585;28;20208;-77
2022/01/04 01:39:36;;;;;;;1.13;1.13;;;;;;;7.32;94.61;99689.19;5113331;28;20255;-77
2022/01/04 01:42:04;;;;;;;1.30;1.30;;;;;;;7.33;94.43;99680.47;5112965;28;20228;-76
2022/01/04 01:44:31;;;;;;;1.17;1.17;;;;;;;7.34;94.21;99674.34;5095212;28;20193;-76
2022/01/04 01:46:58;;;;;;;1.10;1.10;;;;;;;7.35;94.22;99676.88;5113261;28;20212;-77
2022/01/04 01:49:25;;;;;;;1.20;1.20;;;;;;;7.32;94.24;99671.81;5113489;28;20185;-77
2022/01/04 01:51:53;;;;;;;1.20;1.20;;;;;;;7.38;94.46;99687.19;5113084;28;20193;-76
2022/01/04 01:54:19;;;;;;;1.10;1.10;;;;;;;7.36;94.26;99682.97;5115885;28;20590;-77
2022/01/04 01:56:46;;;;;;;1.40;1.40;;;;;;;7.41;94.56;99676.59;5116883;28;20213;-77
2022/01/04 01:59:14;;;;;;;1.57;1.57;;;;;;;7.44;94.14;99676.50;5117235;28;20234;-78
2022/01/04 02:01:41;;;;;;;1.30;1.30;;;;;;;7.42;94.45;99677.44;5116739;28;20222;-78
2022/01/04 02:04:08;;;;;;;1.60;1.60;;;;;;;7.42;94.30;99669.63;5116292;28;20197;-77
2022/01/04 02:06:35;;;;;;;1.30;1.30;;;;;;;7.41;94.43;99663.59;5116739;28;20613;-77
2022/01/04 02:09:02;;;;;;;1.43;1.43;;;;;;;7.42;94.20;99657.47;5116904;28;20221;-77
2022/01/04 02:11:30;;;;;;;1.10;1.10;;;;;;;7.45;94.26;99651.28;5116634;28;20200;-77
2022/01/04 02:13:57;;;;;;;1.40;1.40;;;;;;;7.35;94.54;99650.84;5116673;28;20565;-77
2022/01/04 02:16:28;;;;;;;1.90;1.90;;;;;;;7.32;94.46;99651.00;5117034;28;20265;-76
2022/01/04 02:19:06;;;;;;;1.80;1.80;;;;;;;7.42;94.62;99638.38;5116457;28;20192;-76
2022/01/04 02:21:35;;;;;;;1.70;1.60;;;;;;;7.43;94.48;99635.75;5116238;28;20220;-76
2022/01/04 02:24:03;;;;;;;1.77;1.77;;;;;;;7.37;94.19;99635.16;5116141;28;20192;-76
2022/01/04 02:26:31;;;;;;;2.13;2.13;;;;;;;7.38;94.47;99629.03;5117148;28;20213;-77
2022/01/04 02:28:58;;;;;;;1.87;1.77;;;;;;;7.36;94.39;99630.88;5116830;28;20181;-77
2022/01/04 02:31:26;;;;;;;2.30;2.30;;;;;;;7.40;94.65;99633.25;5115880;28;20185;-76
2022/01/04 02:33:53;;;;;;;1.93;1.83;;;;;;;7.44;94.32;99627.00;5116203;28;20220;-77
2022/01/04 02:36:19;;;;;;;2.87;2.77;;;;;;;7.45;94.12;99627.84;5116640;28;20209;-77
2022/01/04 02:38:46;;;;;;;2.60;2.50;;;;;;;7.38;94.25;99624.69;5097868;28;20353;-77
2022/01/04 02:41:13;;;;;;;3.27;2.93;;;;;;;7.35;94.25;99614.38;5116185;28;20211;-76
2022/01/04 02:43:39;;;;;;;7.07;2.70;;;;;;;7.44;94.06;99606.16;5116563;28;20194;-77
2022/01/04 02:46:06;;;;;;;2.97;2.97;;;;;;;7.40;94.18;99617.63;5115918;28;20301;-77
2022/01/04 02:48:40;;;;;;;3.70;3.50;;;;;;;7.36;94.37;99600.47;5097944;28;20215;-77
2022/01/04 02:51:06;;;;;;;3.07;3.07;;;;;;;7.31;94.20;99601.59;5116186;28;20185;-77
2022/01/04 02:53:33;;;;;;;3.07;3.00;;;;;;;7.31;94.40;99601.59;5115979;28;20671;-77
2022/01/04 02:55:59;;;;;;;3.47;3.20;;;;;;;7.32;94.29;99593.72;5116437;28;20599;-78
2022/01/04 02:58:25;;;;;;;3.73;3.57;;;;;;;7.21;94.79;99613.31;5116098;28;20339;-78
2022/01/04 03:00:52;;;;;;;4.10;4.00;;;;;;;7.03;95.65;99604.59;5116173;28;20275;-77
2022/01/04 03:03:19;;;;;;;4.20;4.10;;;;;;;7.13;95.43;99592.84;5115806;28;20192;-77
2022/01/04 03:05:45;;;;;;;3.67;3.57;;;;;;;7.28;95.36;99586.94;5114906;28;20205;-78
2022/01/04 03:08:12;;;;;;;3.93;3.70;;;;;;;7.29;95.63;99585.22;5097670;28;20189;-78
2022/01/04 03:10:38;;;;;;;3.27;3.27;;;;;;;7.23;95.83;99594.13;5115795;28;20230;-78
2022/01/04 03:13:05;;;;;;;3.67;3.60;;;;;;;7.22;95.92;99594.22;5115173;28;20193;-77
2022/01/04 03:15:33;;;;;;;4.33;4.13;;;;;;;7.33;95.63;99586.75;5115894;28;20205;-78
2022/01/04 03:17:59;;;;;;;3.63;3.53;;;;;;;7.28;95.88;99576.53;5115372;28;20189;-78
2022/01/04 03:20:26;;;;;;;3.73;3.63;;;;;;;7.31;95.94;99576.41;5096973;28;20200;-78
2022/01/04 03:22:52;;;;;;;4.00;3.13;;;;;;;7.17;96.08;99574.44;5114992;28;20667;-77
2022/01/04 03:25:19;;;;;;;3.27;3.27;;;;;;;7.16;96.33;99564.94;5115191;28;20212;-76
2022/01/04 03:27:45;;;;;;;4.43;4.13;;;;;;;7.19;95.88;99561.34;5115191;28;20196;-77
2022/01/04 03:30:12;;;;;;;3.53;3.50;;;;;;;7.23;96.29;99560.28;5115733;28;20574;-77
2022/01/04 03:32:38;;;;;;;3.43;3.43;;;;;;;7.21;95.83;99553.44;5114931;28;20187;-77
2022/01/04 03:35:05;;;;;;;3.57;3.47;;;;;;;7.17;96.00;99550.16;5114927;28;20186;-77
2022/01/04 03:37:32;;;;;;;3.53;3.23;;;;;;;7.08;96.17;99530.63;5096705;28;20213;-77
2022/01/04 03:39:59;;;;;;;3.30;3.30;;;;;;;7.20;96.09;99523.97;5115488;28;20654;-77
2022/01/04 03:42:25;;;;;;;4.33;3.87;;;;;;;7.22;96.05;99523.94;5114517;28;20260;-77
2022/01/04 03:44:52;;;;;;;4.60;4.50;;;;;;;7.31;95.94;99519.13;5114666;28;20185;-77
2022/01/04 03:47:18;;;;;;;4.17;4.07;;;;;;;7.36;95.67;99506.75;5114754;28;20192;-77
2022/01/04 03:49:45;;;;;;;7.00;6.60;;;;;;;7.22;95.30;99506.53;5115420;28;20238;-78
2022/01/04 03:52:11;;;;;;;7.03;6.60;;;;;;;7.21;95.00;99498.78;5096517;28;20597;-78
2022/01/04 03:54:38;;;;;;;6.67;6.33;;;;;;;7.19;95.31;99496.25;5114915;28;20247;-78
2022/01/04 03:57:05;;;;;;;5.97;5.77;;;;;;;7.15;95.41;99492.13;5114533;28;20205;-77
2022/01/04 03:59:31;;;;;;;5.67;5.27;;;;;;;7.16;95.61;99478.19;5115077;28;20230;-77
2022/01/04 04:01:58;;;;;;;5.23;4.83;;;;;;;7.20;95.68;99466.72;5114068;28;20325;-77
2022/01/04 04:04:25;;;;;;;4.87;4.63;;;;;;;7.24;95.50;99470.88;5096223;28;20189;-77
2022/01/04 04:06:52;;;;;;;5.93;5.83;;;;;;;7.27;94.50;99462.91;5115390;28;20713;-78
2022/01/04 04:09:18;;;;;;;7.03;6.47;;;;;;;7.24;94.50;99444.84;5114439;28;20681;-78
2022/01/04 04:11:45;;;;;;;4.60;4.40;;;;;;;7.26;94.90;99443.00;5114284;28;20588;-77
2022/01/04 04:14:11;;;;;;;5.73;5.43;;;;;;;7.28;94.40;99442.91;5115078;28;20191;-78
2022/01/04 04:16:39;;;;;;;6.17;6.07;;;;;;;7.21;94.65;99431.94;5114043;28;20208;-77
2022/01/04 04:19:06;;;;;;;6.00;5.50;;;;;;;7.32;94.57;99432.28;5114974;28;20242;-78
2022/01/04 04:21:32;;;;;;;4.30;4.07;;;;;;;7.31;94.46;99432.38;5113720;28;20213;-77
2022/01/04 04:23:59;;;;;;;5.10;3.93;;;;;;;7.32;94.76;99424.47;5095944;28;20187;-77
2022/01/04 04:26:25;;;;;;;4.77;4.43;;;;;;;7.23;94.74;99416.28;5114529;28;20549;-77
2022/01/04 04:28:52;;;;;;;4.20;4.00;;;;;;;7.29;94.91;99414.22;5114101;28;20233;-77
2022/01/04 04:31:18;;;;;;;5.33;4.83;;;;;;;7.26;94.73;99411.75;5095733;28;20186;-77
2022/01/04 04:33:45;;;;;;;4.20;4.10;;;;;;;7.29;94.85;99408.19;5114211;28;20208;-77
2022/01/04 04:36:11;;;;;;;5.47;5.30;;;;;;;7.28;94.91;99399.50;5113857;28;20212;-76
2022/01/04 04:38:38;;;;;;;4.17;4.00;;;;;;;7.26;94.78;99393.53;5114444;28;20536;-77
2022/01/04 04:41:04;;;;;;;4.83;4.53;;;;;;;7.25;94.62;99393.59;5113568;28;20197;-76
2022/01/04 04:43:31;;;;;;;5.20;5.10;;;;;;;7.24;94.52;99392.78;5114013;28;20567;-77
2022/01/04 04:45:57;;;;;;;6.47;6.17;;;;;;;7.10;94.46;99379.59;5113908;28;20250;-77
2022/01/04 04:48:25;;;;;;;6.00;5.80;;;;;;;7.18;94.60;99388.69;5114107;28;20584;-77
2022/01/04 04:50:51;;;;;;;5.13;4.90;;;;;;;7.29;94.24;99385.59;5113852;28;20196;-78
2022/01/04 04:53:18;;;;;;;5.43;5.23;;;;;;;7.26;94.20;99383.13;5113512;28;20242;-77
2022/01/04 04:55:44;;;;;;;6.13;5.83;;;;;;;7.17;94.36;99373.16;5113501;28;20560;-77
2022/01/04 04:58:12;;;;;;;6.50;6.30;;;;;;;7.12;94.65;99375.13;5113974;28;20185;-77
2022/01/04 05:00:38;;;;;;;6.30;6.00;;;;;;;7.09;94.95;99375.31;5114236;28;20185;-77
2022/01/04 05:03:05;;;;;;;6.67;6.07;;;;;;;7.09;95.08;99373.53;5113081;28;20208;-76
2022/01/04 05:05:32;;;;;;;7.53;6.97;;;;;;;7.22;95.01;99379.00;5113483;28;20217;-77
2022/01/04 05:07:58;;;;;;;7.60;7.10;;;;;;;7.27;94.73;99376.16;5113862;28;20249;-77
2022/01/04 05:10:25;;;;;;;7.20;7.00;;;;;;;7.29;94.75;99384.75;5113793;28;20778;-77
2022/01/04 05:12:51;;;;;;;10.03;9.00;;;;;;;7.27;94.31;99376.16;5113454;28;20191;-77
2022/01/04 05:15:18;;;;;;;10.13;9.13;;;;;;;7.14;94.45;99376.78;5114771;28;20209;-78
2022/01/04 05:17:45;;;;;;;13.60;10.10;;;;;;;7.19;93.76;99381.72;5096651;28;20189;-78
2022/01/04 05:20:11;;;;;;;10.67;9.73;;;;;;;7.04;94.34;99372.06;5113661;28;20209;-78
2022/01/04 05:22:38;;;;;;;13.17;10.10;;;;;;;7.06;94.33;99375.44;5095767;28;20202;-78
2022/01/04 05:25:05;;;;;;;11.27;9.67;;;;;;;7.12;94.16;99377.75;5114103;28;20185;-78
2022/01/04 05:27:31;;;;;;;10.03;9.03;;;;;;;7.06;94.27;99378.03;5114197;28;20192;-78
2022/01/04 05:29:58;;;;;;;10.43;9.43;;;;;;;7.10;94.21;99384.78;5118305;28;20184;-78
2022/01/04 05:32:24;;;;;;;11.10;8.70;;;;;;;7.10;94.10;99376.97;5118534;28;20185;-78
2022/01/04 05:34:51;;;;;;;15.27;9.33;;;;;;;7.09;94.15;99394.34;5118305;28;20200;-78
2022/01/04 05:37:17;;;;;;;16.70;9.83;;;;;;;7.09;93.91;99376.13;5117733;28;20189;-78
2022/01/04 05:39:44;;;;;;;17.60;10.40;;;;;;;7.06;94.00;99372.81;5117963;28;20193;-78
2022/01/04 05:42:10;;;;;;;12.00;10.13;;;;;;;7.00;94.20;99374.00;5117801;28;20212;-78
2022/01/04 05:44:37;;;;;;;15.73;9.90;;;;;;;7.05;93.96;99378.94;5117681;28;20551;-78
2022/01/04 05:47:05;;;;;;;15.23;10.07;;;;;;;7.04;94.36;99379.88;5098452;28;20205;-77
2022/01/04 05:49:32;;;;;;;11.30;10.10;;;;;;;7.06;94.28;99375.44;5117328;28;20181;-77
2022/01/04 05:51:59;;;;;;;9.90;9.13;;;;;;;7.07;94.15;99361.50;5116930;28;20177;-77
2022/01/04 05:54:25;;;;;;;9.73;9.03;;;;;;;7.08;94.61;99356.25;5116978;28;20532;-77
2022/01/04 05:56:52;;;;;;;9.17;8.30;;;;;;;7.14;94.59;99349.88;5116629;28;20205;-77
2022/01/04 05:59:18;;;;;;;8.13;7.33;;;;;;;7.16;94.46;99343.69;5096451;28;20246;-77
2022/01/04 06:01:45;;;;;;;6.33;6.03;;;;;;;7.21;94.34;99346.03;5096917;28;20210;-77
2022/01/04 06:04:11;;;;;;;6.13;5.90;;;;;;;7.20;94.15;99341.75;5087027;28;20216;-77
2022/01/04 06:06:41;;;;;;;6.80;6.47;;;;;;;7.17;94.44;99337.56;5116940;28;20317;-77
2022/01/04 06:09:16;;;;;;;8.17;7.37;;;;;;;7.21;94.17;99322.63;5116621;28;20185;-77
2022/01/04 06:16:54;;;;;;;8.13;7.57;;;;;;;7.24;93.97;99312.06;5096060;28;20201;-77
2022/01/04 06:19:21;;;;;;;7.77;7.47;;;;;;;7.30;93.63;99316.13;5096687;28;20176;-77
2022/01/04 06:21:47;;;;;;;9.47;8.67;;;;;;;7.21;93.58;99306.16;5097841;28;20217;-76
2022/01/04 06:24:14;;;;;;;8.13;7.57;;;;;;;7.30;93.37;99301.34;5116361;28;20234;-77
2022/01/04 06:26:40;;;;;;;7.57;7.27;;;;;;;7.21;93.58;99309.59;5116344;28;20266;-77
2022/01/04 06:29:07;;;;;;;8.17;7.67;;;;;;;7.14;93.65;99310.81;5098032;28;20196;-77
2022/01/04 06:31:34;;;;;;;8.40;7.93;;;;;;;7.14;93.81;99309.09;5116898;28;20186;-77
2022/01/04 06:34:01;;;;;;;8.17;7.43;;;;;;;7.13;93.73;99311.75;5115876;28;20197;-76
2022/01/04 06:36:27;;;;;;;8.10;7.70;;;;;;;7.18;93.70;99307.16;5116331;28;20601;-77
2022/01/04 06:38:54;;;;;;;8.57;8.00;;;;;;;7.10;93.82;99306.72;5116371;28;20191;-77
2022/01/04 06:41:21;;;;;;;8.10;7.43;;;;;;;7.15;94.16;99304.72;5115284;28;20185;-77
2022/01/04 06:43:48;;;;;;;9.00;8.33;;;;;;;7.17;94.00;99305.50;5097962;28;20731;-77
2022/01/04 06:46:14;;;;;;;9.47;8.63;;;;;;;7.15;94.08;99292.56;5097772;28;20211;-76
2022/01/04 06:48:42;;;;;;;10.73;7.80;;;;;;;7.18;93.74;99300.19;5116124;28;20196;-77
2022/01/04 06:51:09;;;;;;;8.20;7.43;;;;;;;7.15;93.45;99286.50;5116195;28;20652;-78
2022/01/04 06:53:35;;;;;;;9.03;8.27;;;;;;;7.37;93.09;99291.47;5116104;28;20540;-77
2022/01/04 06:56:02;;;;;;;10.00;9.20;;;;;;;7.30;93.46;99279.69;5115999;28;20735;-77
2022/01/04 06:58:30;;;;;;;9.70;8.90;;;;;;;7.24;93.50;99278.22;5115543;28;20716;-77
2022/01/04 07:00:56;;;;;;;10.53;9.43;;;;;;;7.27;93.68;99279.81;5115607;28;20230;-77
2022/01/04 07:03:28;;;;;;;12.07;10.10;;;;;;;7.27;93.58;99272.84;5113057;28;20212;-76
2022/01/04 07:05:54;;;;;;;10.93;9.73;;;;;;;7.24;93.57;99272.19;5115467;28;20261;-77
2022/01/04 07:08:21;;;;;;;9.80;8.73;;;;;;;7.24;93.47;99282.59;5113649;28;20196;-77
2022/01/04 07:10:47;;;;;;;10.03;9.20;;;;;;;7.16;93.73;99289.03;5096413;28;20675;-76
2022/01/04 07:13:14;;;;;;;8.57;7.80;;;;;;;7.27;93.49;99293.69;5114833;28;20177;-77
2022/01/04 07:15:42;;;;;;;9.00;8.47;;;;;;;7.24;93.56;99288.63;5115329;28;20207;-77
2022/01/04 07:18:09;;;;;;;9.53;8.83;;;;;;;7.30;93.57;99277.91;5115590;28;20192;-77
2022/01/04 07:20:35;;;;;;;13.37;9.77;;;;;;;7.23;93.37;99275.72;5115771;28;20193;-78
2022/01/04 07:23:02;;;;;;;11.93;9.10;;;;;;;7.25;93.41;99276.47;5114021;28;20205;-77
2022/01/04 07:25:29;;;;;;;18.67;9.97;;;;;;;7.26;93.26;99278.16;5096842;28;20223;-76
2022/01/04 07:27:55;;;;;;;14.53;9.10;;;;;;;7.23;93.24;99275.72;5115089;28;20186;-77
2022/01/04 07:30:22;;;;;;;8.87;8.27;;;;;;;7.20;93.34;99268.03;5096097;28;20193;-77
2022/01/04 07:32:48;;;;;;;11.40;7.90;;;;;;;7.28;93.40;99253.69;5114974;28;20678;-77
2022/01/04 07:35:15;;;;;;;7.87;7.17;;;;;;;7.26;93.13;99262.53;5114873;28;20690;-76
2022/01/04 07:37:41;;;;;;;9.30;8.40;;;;;;;7.20;93.58;99268.88;5096669;28;20186;-77
2022/01/04 07:40:08;;;;;;;8.50;7.77;;;;;;;7.21;93.45;99267.13;5114838;28;20228;-76
2022/01/04 07:42:35;;;;;;;9.83;8.83;;;;;;;7.26;93.38;99273.78;5114723;28;20204;-77
2022/01/04 07:45:02;;;;;;;11.60;10.27;;;;;;;7.17;93.42;99276.84;5113363;28;20550;-77
2022/01/04 07:47:29;;;;;;;10.40;9.57;;;;;;;7.16;93.13;99260.41;5114427;28;20192;-77
2022/01/04 07:49:56;;;;;;;17.27;11.17;;;;;;;7.10;93.23;99259.88;5115049;28;20189;-77
2022/01/04 07:52:23;;;;;;;11.93;9.87;;;;;;;7.14;92.94;99256.16;5114735;28;20181;-77
2022/01/04 07:54:49;;;;;;;15.93;10.63;;;;;;;7.06;93.54;99255.72;5114886;28;20585;-77
2022/01/04 07:57:16;;;;;;;9.87;8.97;;;;;;;7.07;94.06;99242.66;5096072;28;20246;-76
2022/01/04 07:59:42;;;;;;;9.50;8.67;;;;;;;7.04;94.06;99244.56;5096305;28;20193;-77
2022/01/04 08:02:09;;;;;;;9.67;8.77;;;;;;;7.03;93.70;99248.91;5114402;28;20258;-77
2022/01/04 08:04:35;;;;;;;9.43;8.63;;;;;;;7.12;93.71;99252.81;5114403;28;20231;-77
2022/01/04 08:07:02;;;;;;;8.87;8.03;;;;;;;7.14;93.68;99245.75;5114324;28;20206;-76
2022/01/04 08:09:29;;;;;;;10.53;9.43;;;;;;;7.15;93.76;99231.84;5114092;28;20671;-77
2022/01/04 08:11:56;;;;;;;15.00;9.30;;;;;;;7.09;93.70;99235.59;5114295;28;20191;-77
2022/01/04 08:14:23;;;;;;;10.13;9.13;;;;;;;7.08;93.58;99223.50;5114532;28;20192;-77
2022/01/04 08:16:49;;;;;;;13.97;9.60;;;;;;;7.17;93.42;99232.59;5114149;28;20220;-77
2022/01/04 08:19:16;;;;;;;9.47;8.50;;;;;;;7.20;92.89;99229.00;5113867;28;20185;-76
2022/01/04 08:21:42;;;;;;;8.83;8.13;;;;;;;7.14;93.21;99241.44;5114079;28;20197;-77
2022/01/04 08:24:08;;;;;;;8.33;7.63;;;;;;;7.15;93.31;99239.66;5114422;28;20238;-77
2022/01/04 08:26:36;;;;;;;8.70;6.63;;;;;;;7.10;93.47;99244.25;5113968;28;20201;-77
2022/01/04 08:29:03;;;;;;;16.30;8.47;;;;;;;7.04;93.75;99236.75;5113980;28;20542;-77
2022/01/04 08:31:29;;;;;;;8.57;7.13;;;;;;;7.06;93.45;99232.31;5114174;28;20184;-76
2022/01/04 08:33:56;;;;;;;7.50;6.90;;;;;;;7.09;93.64;99233.00;5113921;28;20656;-77
2022/01/04 08:36:26;;;;;;;8.00;7.00;;;;;;;7.01;93.61;99224.75;5113579;28;20209;-76
2022/01/04 08:38:54;;;;;;;8.23;7.50;;;;;;;7.04;94.36;99215.94;5114450;28;20173;-77
2022/01/04 08:41:20;;;;;;;17.13;8.10;;;;;;;6.91;94.34;99228.72;5113894;28;20238;-77
2022/01/04 08:43:47;;;;;;;8.73;8.07;;;;;;;6.85;94.78;99232.47;5113255;28;20209;-77
2022/01/04 08:46:13;;;;;;;9.33;8.33;;;;;;;6.95;94.82;99238.06;5095508;28;20209;-77
2022/01/04 08:48:40;;;;;;;8.87;8.07;;;;;;;6.95;95.12;99234.63;5114125;28;20666;-77
2022/01/04 08:51:06;;;;;;;8.00;7.40;;;;;;;7.04;94.81;99234.16;5113738;28;20655;-77
2022/01/04 08:53:33;;;;;;;9.50;8.20;;;;;;;7.03;94.88;99230.72;5095219;28;20666;-77
2022/01/04 08:56:01;;;;;;;14.47;8.13;;;;;;;7.09;94.89;99232.16;5078688;28;20230;-77
2022/01/04 08:58:28;;;;;;;9.87;8.87;;;;;;;7.08;94.82;99230.47;5113914;28;20200;-77
2022/01/04 09:00:55;;;;;;;13.93;9.40;;;;;;;7.15;94.41;99229.25;5095510;28;20185;-77
2022/01/04 09:03:24;;;;;;;10.23;8.87;;;;;;;7.13;94.36;99223.25;5097127;28;20246;-77
2022/01/04 09:05:51;;;;;;;9.63;8.70;;;;;;;7.14;94.49;99223.22;5117833;28;20250;-76
2022/01/04 09:08:18;;;;;;;8.43;7.83;;;;;;;7.15;94.76;99230.09;5117584;28;20774;-76
2022/01/04 09:10:44;;;;;;;12.60;8.33;;;;;;;7.26;94.26;99232.13;5118050;28;20678;-76
2022/01/04 09:13:16;;;;;;;8.83;7.90;;;;;;;7.13;94.64;99246.69;5117808;28;20182;-77
2022/01/04 09:21:26;;;;;;;8.07;7.50;;;;;;;7.13;94.61;99259.69;5117682;28;20194;-77
2022/01/04 09:23:55;;;;;;;8.07;7.20;;;;;;;7.11;94.84;99249.38;5099340;28;20614;-77
2022/01/04 09:26:23;;;;;;;9.53;8.43;;;;;;;7.20;95.10;99252.41;5117672;28;20212;-77
2022/01/04 09:28:49;;;;;;;12.10;9.03;;;;;;;7.24;94.80;99260.00;5117295;28;20197;-77
2022/01/04 09:31:16;;;;;;;13.27;9.37;;;;;;;7.16;94.86;99259.56;5117907;28;20188;-77
2022/01/04 09:33:43;;;;;;;16.60;9.80;;;;;;;7.19;94.51;99251.59;5117889;28;20537;-78
2022/01/04 09:36:33;;;;;;;8.33;7.63;;;;;;;7.05;94.54;99241.03;5117301;28;20206;-77
2022/01/04 09:39:03;;;;;;;11.57;9.37;;;;;;;7.10;94.55;99239.03;5116076;28;20188;-77
2022/01/04 09:41:29;;;;;;;10.10;9.10;;;;;;;7.00;94.56;99232.59;5099876;28;20193;-77
2022/01/04 09:43:56;;;;;;;11.97;9.23;;;;;;;7.00;94.88;99236.06;5117898;28;20205;-78
2022/01/04 09:46:23;;;;;;;12.53;8.57;;;;;;;7.00;94.91;99235.22;5117478;28;20262;-77
2022/01/04 09:48:49;;;;;;;13.03;7.83;;;;;;;7.06;95.02;99232.31;5099111;28;20199;-77
2022/01/04 09:51:16;;;;;;;13.93;8.47;;;;;;;7.11;95.09;99233.75;5099507;28;20201;-78
2022/01/04 09:53:43;;;;;;;9.53;8.73;;;;;;;7.21;94.93;99234.13;5118341;28;20165;-78
2022/01/04 09:56:10;;;;;;;10.00;8.40;;;;;;;7.26;94.73;99245.13;5117307;28;20213;-78
2022/01/04 09:58:36;;;;;;;8.83;8.13;;;;;;;7.37;94.21;99242.84;5117284;28;20192;-78
2022/01/04 10:01:03;;;;;;;9.53;8.47;;;;;;;7.31;94.37;99239.72;5117175;28;20533;-77
2022/01/04 10:03:32;;;;;;;16.03;9.90;;;;;;;7.28;94.04;99227.66;5098894;28;20636;-78
2022/01/04 10:06:14;;;;;;;9.60;8.60;;;;;;;7.40;94.29;99236.63;5116916;28;20695;-78
2022/01/04 10:08:56;;;;;;;10.23;9.23;;;;;;;7.18;93.29;99247.31;5117954;28;20173;-78
2022/01/04 10:11:43;;;;;;;10.60;9.50;;;;;;;7.09;93.98;99233.00;5118600;28;20181;-78
2022/01/04 10:14:44;;;;;;;13.10;10.07;;;;;;;7.04;93.53;99236.75;5100025;28;20558;-78
2022/01/04 10:17:14;;;;;;;12.03;9.53;;;;;;;6.97;93.97;99227.56;5063115;28;20713;-78
2022/01/04 10:19:49;;;;;;;18.73;11.60;;;;;;;7.01;93.68;99229.13;5117169;28;20169;-78
2022/01/04 10:22:25;;;;;;;11.00;9.57;;;;;;;6.98;93.71;99235.28;5117528;28;20181;-78
2022/01/04 10:25:01;;;;;;;13.93;10.07;;;;;;;6.99;93.87;99230.94;5116963;28;20574;-77
2022/01/04 10:27:42;;;;;;;16.03;10.30;;;;;;;7.06;93.77;99237.50;5116922;28;20188;-77
2022/01/04 10:30:28;;;;;;;17.23;10.20;;;;;;;6.95;93.60;99238.06;5117799;28;20169;-78
2022/01/04 10:33:08;;;;;;;10.40;9.43;;;;;;;6.92;94.00;99237.34;5117110;28;20184;-78
2022/01/04 10:35:44;;;;;;;15.40;11.20;;;;;;;6.88;94.32;99242.72;5116812;28;20721;-77
2022/01/04 10:38:22;;;;;;;15.33;10.83;;;;;;;6.90;94.73;99235.69;5099099;28;20234;-78
2022/01/04 10:40:55;;;;;;;18.20;13.03;;;;;;;6.92;94.71;99234.75;5116670;28;20173;-78
2022/01/04 10:43:27;;;;;;;14.97;12.17;;;;;;;6.92;95.09;99232.16;5117145;28;20197;-79
2022/01/04 10:45:55;;;;;;;17.27;14.03;;;;;;;6.98;94.85;99229.25;5116342;28;20258;-78
2022/01/04 10:48:30;;;;;;;20.87;12.63;;;;;;;7.03;94.51;99230.72;5116432;28;20189;-78
2022/01/04 10:51:04;;;;;;;18.87;12.20;;;;;;;7.01;94.71;99210.91;5097848;28;20188;-78
2022/01/04 10:53:45;;;;;;;15.67;12.57;;;;;;;7.04;94.67;99214.16;5116246;28;20177;-78
2022/01/04 10:56:14;;;;;;;19.20;12.70;;;;;;;7.00;94.95;99210.06;5116141;28;20257;-78
2022/01/04 10:58:50;;;;;;;16.00;11.93;;;;;;;6.97;94.82;99210.19;5116525;28;20170;-78
2022/01/04 11:01:19;;;;;;;20.00;13.23;;;;;;;7.01;94.55;99193.53;5097729;28;20184;-78
2022/01/04 11:03:53;;;;;;;20.30;13.33;;;;;;;6.97;94.90;99210.19;5116227;28;20242;-77
2022/01/04 11:06:37;;;;;;;18.17;13.10;;;;;;;6.93;95.23;99208.69;5116403;28;20248;-78
2022/01/04 11:09:05;;;;;;;18.37;12.27;;;;;;;6.95;95.51;99195.59;5115599;28;20178;-77
2022/01/04 11:11:32;;;;;;;30.80;12.47;;;;;;;6.89;95.72;99200.19;5097794;28;20574;-78
2022/01/04 11:13:59;;;;;;;19.90;12.83;;;;;;;7.01;95.58;99206.53;5116085;28;20181;-77
2022/01/04 11:16:27;;;;;;;18.90;13.23;;;;;;;7.05;95.55;99199.41;5115365;28;20262;-77
2022/01/04 11:18:56;;;;;;;20.87;13.60;;;;;;;7.04;95.32;99195.13;5115603;28;20165;-77
2022/01/04 11:21:34;;;;;;;17.50;13.40;;;;;;;7.07;95.14;99200.16;5097146;28;20647;-77
2022/01/04 11:24:05;;;;;;;19.60;14.47;;;;;;;7.12;95.18;99209.41;5115477;28;20189;-77
2022/01/04 11:26:33;;;;;;;21.37;13.93;;;;;;;7.09;95.35;99206.13;5096319;28;20209;-77
2022/01/04 11:29:00;;;;;;;26.50;14.40;;;;;;;7.09;94.89;99208.75;5115760;28;20185;-77
2022/01/04 11:31:38;;;;;;;22.17;15.30;;;;;;;7.21;95.20;99213.28;5115258;28;20658;-77
2022/01/04 11:34:11;;;;;;;19.57;12.70;;;;;;;7.16;95.35;99210.09;5115631;28;20226;-76
2022/01/04 11:36:41;;;;;;;23.47;13.57;;;;;;;7.18;94.83;99210.84;5115742;28;20213;-75
2022/01/04 11:39:36;;;;;;;23.47;14.13;;;;;;;7.15;95.68;99200.63;5115199;28;20190;-75
2022/01/04 11:42:13;;;;;;;19.27;14.20;;;;;;;7.18;95.62;99190.03;5112642;28;20204;-75
2022/01/04 11:44:48;;;;;;;21.60;14.77;;;;;;;7.32;95.92;99182.34;5115205;28;20188;-75
2022/01/04 11:47:22;;;;;;;23.43;15.17;;;;;;;7.38;95.65;99184.63;5114975;28;20204;-75
2022/01/04 11:50:10;;;;;;;26.53;14.13;;;;;;;7.33;95.34;99191.84;5115008;28;20200;-75
2022/01/04 11:52:38;;;;;;;19.97;12.80;;;;;;;7.33;94.72;99188.41;5114654;28;20587;-76
2022/01/04 11:55:26;;;;;;;15.80;12.20;;;;;;;7.28;94.66;99199.03;5114872;28;20173;-75
2022/01/04 11:57:55;;;;;;;16.23;12.20;;;;;;;7.21;94.90;99191.63;5114588;28;20186;-76